Bernice — WCY5940 — position and weather

sailwx.info

Track history (hours):
 
Tides and Currents Weather Stations Pressure Air Temp Water Temp Dewpoint Dewpoint Depression Visibility Wind Speed Wind Dir Waves Ship Positions

Bernice

Owner: KAMMERER, DAN E, PETALUMA, CA. More information available from US FCC via Universal Licensing System and Coast Guard Vessel Documentation Center.

Last reported at 2018-Feb-21 22:41 UTC. Time now 2018-Feb-23 22:45 UTC.
Position N 37°30' W 122°29'.

Length 13 m.

Type: Fishing. MMSI: 367355870.

Date/timePositionNaut miles runAvg speedWind from/ knotsBaromVisibWave heightAir tempDewpointWater temp
2018-Feb-21 22:41N 37°30' W 122°29'0 0.0
2018-Feb-21 22:29N 37°30' W 122°29'0 0.8
2018-Feb-21 22:00N 37°30' W 122°29'3 6.4
2018-Feb-21 21:30N 37°27' W 122°29'4 7.1
2018-Feb-21 20:59N 37°23' W 122°30'4 7.5
2018-Feb-21 20:30N 37°19' W 122°30'2 0.2
2018-Feb-21 14:02N 37°18' W 122°31'1 7.8
2018-Feb-21 13:54N 37°19' W 122°31'3 7.6
2018-Feb-21 13:30N 37°22' W 122°30'4 7.7
2018-Feb-21 13:00N 37°26' W 122°30'4 7.8
2018-Feb-21 12:30N 37°29' W 122°29'1 1.5
2018-Feb-21 11:59N 37°30' W 122°29'  
2018-Feb-14 22:38N 37°30' W 122°29'0 2.1
2018-Feb-14 22:30N 37°30' W 122°29'2 4.3
2018-Feb-14 22:00N 37°28' W 122°29'3 6.1
2018-Feb-14 21:30N 37°25' W 122°30'3 6.0
2018-Feb-14 21:00N 37°22' W 122°31'3 6.1
2018-Feb-14 20:28N 37°19' W 122°32'5 6.3
2018-Feb-14 19:42N 37°14' W 122°33'1 6.3
2018-Feb-14 19:30N 37°13' W 122°34'3 6.2
2018-Feb-14 18:59N 37°10' W 122°34'9 6.3
2018-Feb-14 17:38N 37°01' W 122°36'1 6.4
2018-Feb-14 17:29N 37°00' W 122°36'19 1.0
2018-Feb-13 23:21N 37°18' W 122°29'3 8.0
2018-Feb-13 22:55N 37°22' W 122°29'3 8.0
2018-Feb-13 22:30N 37°25' W 122°28'4 7.8
2018-Feb-13 22:00N 37°29' W 122°28'1 2.8
2018-Feb-13 21:29N 37°30' W 122°29'0 0.0
2018-Feb-13 20:59N 37°30' W 122°29'0 0.0
2018-Feb-13 20:29N 37°30' W 122°29'0 0.1
2018-Feb-13 19:58N 37°30' W 122°29'0 0.1
2018-Feb-13 19:29N 37°30' W 122°29'  
Track history (hours):
 
Tides and Currents Weather Stations Pressure Air Temp Water Temp Dewpoint Dewpoint Depression Visibility Wind Speed Wind Dir Waves Ship Positions

Bernice

Owner: KAMMERER, DAN E, PETALUMA, CA. More information available from US FCC via Universal Licensing System and Coast Guard Vessel Documentation Center.

Last reported at 2018-Feb-21 22:41 UTC. Time now 2018-Feb-23 22:45 UTC.
Position N 37°30' W 122°29'.

Length 13 m.

Type: Fishing. MMSI: 367355870.

Date/timePositionNaut miles runAvg speedWind from/ knotsBaromVisibWave heightAir tempDewpointWater temp
2018-Feb-21 22:41N 37°30' W 122°29'0 0.0
2018-Feb-21 22:29N 37°30' W 122°29'0 0.8
2018-Feb-21 22:00N 37°30' W 122°29'3 6.4
2018-Feb-21 21:30N 37°27' W 122°29'4 7.1
2018-Feb-21 20:59N 37°23' W 122°30'4 7.5
2018-Feb-21 20:30N 37°19' W 122°30'2 0.2
2018-Feb-21 14:02N 37°18' W 122°31'1 7.8
2018-Feb-21 13:54N 37°19' W 122°31'3 7.6
2018-Feb-21 13:30N 37°22' W 122°30'4 7.7
2018-Feb-21 13:00N 37°26' W 122°30'4 7.8
2018-Feb-21 12:30N 37°29' W 122°29'1 1.5
2018-Feb-21 11:59N 37°30' W 122°29'  
2018-Feb-14 22:38N 37°30' W 122°29'0 2.1
2018-Feb-14 22:30N 37°30' W 122°29'2 4.3
2018-Feb-14 22:00N 37°28' W 122°29'3 6.1
2018-Feb-14 21:30N 37°25' W 122°30'3 6.0
2018-Feb-14 21:00N 37°22' W 122°31'3 6.1
2018-Feb-14 20:28N 37°19' W 122°32'5 6.3
2018-Feb-14 19:42N 37°14' W 122°33'1 6.3
2018-Feb-14 19:30N 37°13' W 122°34'3 6.2
2018-Feb-14 18:59N 37°10' W 122°34'9 6.3
2018-Feb-14 17:38N 37°01' W 122°36'1 6.4
2018-Feb-14 17:29N 37°00' W 122°36'19 1.0
2018-Feb-13 23:21N 37°18' W 122°29'3 8.0
2018-Feb-13 22:55N 37°22' W 122°29'3 8.0
2018-Feb-13 22:30N 37°25' W 122°28'4 7.8
2018-Feb-13 22:00N 37°29' W 122°28'1 2.8
2018-Feb-13 21:29N 37°30' W 122°29'0 0.0
2018-Feb-13 20:59N 37°30' W 122°29'0 0.0
2018-Feb-13 20:29N 37°30' W 122°29'0 0.1
2018-Feb-13 19:58N 37°30' W 122°29'0 0.1
2018-Feb-13 19:29N 37°30' W 122°29'  

Dump ship's entire track history